Smith Island, WA current weather conditions

sailwx.info

Wind from 130 at 18 knots gusting 21

Air temperature 8.6° C
Dewpoint 4.0° C

Last reported at 2020-Jan-19 15:00 UTC.
Time now 2020-Jan-19 15:51 UTC

Location: N 48°19' W 122°50'.
View on Google Maps.

See reports from other nearby stations

  
Tides and Currents Weather Stations Pressure Air Temp Water Temp Dewpoint Dewpoint Depression Visibility Wind Speed Wind Dir Waves Ship Positions
date/time (UTC)wind fromknots sea level pressurealtimeterstation pressurevisibilityair tempwater tempwave heightnotes
2020-Jan-19 15:00 130 18 gusting 21 8.6
2020-Jan-19 14:50 130 15 gusting 20 8.4
2020-Jan-19 14:40 130 17 gusting 20 8.4
2020-Jan-19 14:30 130 18 gusting 20 8.5
2020-Jan-19 14:20 130 19 gusting 22 8.6
2020-Jan-19 14:10 130 21 gusting 27 8.8
2020-Jan-19 14:00 130 19 gusting 25 9.0
2020-Jan-19 13:50 130 19 gusting 22 9.2
2020-Jan-19 13:40 130 20 gusting 25 9.3
2020-Jan-19 13:30 130 20 gusting 26 9.4
2020-Jan-19 13:20 120 24 gusting 31 9.4
2020-Jan-19 13:10 110 26 gusting 29 9.2
2020-Jan-19 13:00 110 25 gusting 31 9.2
2020-Jan-19 12:50 110 27 gusting 34 9.4
2020-Jan-19 12:40 120 27 gusting 34 9.4
2020-Jan-19 12:30 130 28 gusting 34 9.3
2020-Jan-19 12:20 120 26 gusting 31 9.3
2020-Jan-19 12:10 120 25 gusting 29 9.3
2020-Jan-19 12:00 120 21 gusting 27 9.2
2020-Jan-19 11:50 130 21 gusting 26 9.1
2020-Jan-19 11:40 130 22 gusting 27 9.0
2020-Jan-19 11:30 130 22 gusting 27 9.0
2020-Jan-19 11:20 120 24 gusting 27 9.0
2020-Jan-19 11:10 120 24 gusting 31 9.0
2020-Jan-19 11:00 120 25 gusting 28 8.8
2020-Jan-19 10:50 110 26 gusting 32 8.9
2020-Jan-19 10:40 110 26 gusting 31 8.7
2020-Jan-19 10:30 110 27 gusting 29 8.6
2020-Jan-19 10:20 110 27 gusting 31 8.5
2020-Jan-19 10:10 110 26 gusting 29 8.7
2020-Jan-19 10:00 120 25 gusting 29 8.9
2020-Jan-19 09:50 120 26 gusting 32 9.0
2020-Jan-19 09:40 120 27 gusting 29 9.0
2020-Jan-19 09:30 120 25 gusting 29 8.9
2020-Jan-19 09:20 120 24 gusting 28 8.8
2020-Jan-19 09:10 130 21 gusting 27 8.7
2020-Jan-19 09:00 130 20 gusting 27 8.7
2020-Jan-19 08:50 130 20 gusting 24 8.8
2020-Jan-19 08:40 130 19 gusting 25 8.6
2020-Jan-19 08:30 130 19 gusting 22 8.4
2020-Jan-19 08:20 130 19 gusting 22 8.5
2020-Jan-19 08:10 130 20 gusting 26 8.5
2020-Jan-19 08:00 130 20 gusting 25 8.3
2020-Jan-19 07:50 130 19 gusting 22 8.2
2020-Jan-19 07:40 120 19 gusting 24 8.2
2020-Jan-19 07:30 120 22 gusting 27 8.3
2020-Jan-19 07:20 130 25 gusting 29 8.6
2020-Jan-19 07:10 130 25 gusting 31 8.6
2020-Jan-19 07:00 130 27 gusting 33 8.5
2020-Jan-19 06:50 130 27 gusting 32 8.4
2020-Jan-19 06:40 130 26 gusting 31 8.4
2020-Jan-19 06:30 130 27 gusting 29 8.3
2020-Jan-19 06:20 140 27 gusting 33 8.4
2020-Jan-19 06:10 140 28 gusting 34 8.3
2020-Jan-19 06:00 140 28 gusting 34 8.3
2020-Jan-19 05:50 140 27 gusting 33 8.2
2020-Jan-19 05:40 140 27 gusting 32 8.2
2020-Jan-19 05:30 130 25 gusting 28 8.2
2020-Jan-19 05:20 130 24 gusting 27 8.2
2020-Jan-19 05:10 130 25 gusting 29 8.2
2020-Jan-19 05:00 130 26 gusting 32 8.2
2020-Jan-19 04:50 130 27 gusting 32 8.3
2020-Jan-19 04:40 130 26 gusting 31 8.2
2020-Jan-19 04:30 130 27 gusting 34 8.2
2020-Jan-19 04:20 130 25 gusting 32 8.2
2020-Jan-19 04:10 130 25 gusting 29 8.2
2020-Jan-19 04:00 130 25 gusting 29 8.2
2020-Jan-19 03:50 140 25 gusting 28 8.2
2020-Jan-19 03:40 140 24 gusting 28 8.2
2020-Jan-19 03:30 140 27 gusting 33 8.2
2020-Jan-19 03:20 140 27 gusting 32 8.2
2020-Jan-19 03:10 140 27 gusting 34 8.2
2020-Jan-19 03:00 140 27 gusting 32 8.2
2020-Jan-19 02:50 140 27 gusting 33 8.2
2020-Jan-19 02:40 140 28 gusting 34 8.2
2020-Jan-19 02:30 140 25 gusting 31 8.1
2020-Jan-19 02:20 140 25 gusting 32 8.2
2020-Jan-19 02:10 140 27 gusting 32 8.2
2020-Jan-19 02:00 140 28 gusting 34 8.3
2020-Jan-19 01:50 140 29 gusting 34 8.3
2020-Jan-19 01:40 130 28 gusting 34 8.3
2020-Jan-19 01:30 140 27 gusting 33 8.2
2020-Jan-19 01:20 140 27 gusting 33 8.1
2020-Jan-19 01:10 140 28 gusting 34 8.1
2020-Jan-19 01:00 140 28 gusting 34 8.1
2020-Jan-19 00:50 140 28 gusting 34 8.1
2020-Jan-19 00:40 130 29 gusting 34 8.1
2020-Jan-19 00:30 130 29 gusting 34 8.1
2020-Jan-19 00:20 140 29 gusting 35 8.1
2020-Jan-19 00:10 130 28 gusting 34 8.2
2020-Jan-19 00:00 130 28 gusting 36 8.2
2020-Jan-18 23:50 140 27 gusting 33 8.2
2020-Jan-18 23:40 140 27 gusting 34 8.2
2020-Jan-18 23:30 140 28 gusting 35 8.2
2020-Jan-18 23:20 140 29 gusting 36 8.2
2020-Jan-18 23:10 140 29 gusting 35 8.1
2020-Jan-18 23:00 130 32 gusting 38 8.0
2020-Jan-18 22:50 140 33 gusting 40 8.0
2020-Jan-18 22:40 140 32 gusting 36 8.0
2020-Jan-18 22:30 140 31 gusting 39 7.9
2020-Jan-18 22:20 140 31 gusting 36 7.7
2020-Jan-18 22:10 130 31 gusting 38 7.6
2020-Jan-18 22:00 130 29 gusting 36 7.5
2020-Jan-18 21:50 130 28 gusting 34 7.4
2020-Jan-18 21:40 130 29 gusting 35 7.3
2020-Jan-18 21:30 130 27 gusting 34 7.2
2020-Jan-18 21:20 130 28 gusting 36 7.1
2020-Jan-18 21:10 130 28 gusting 34 7.0
2020-Jan-18 21:00 140 28 gusting 34 6.9
2020-Jan-18 20:50 140 29 gusting 35 6.9
2020-Jan-18 20:40 140 31 gusting 36 6.9
2020-Jan-18 20:30 130 32 gusting 39 6.9
2020-Jan-18 20:20 130 29 gusting 39 6.8
2020-Jan-18 20:10 130 29 gusting 38 6.8
2020-Jan-18 20:00 130 28 gusting 36 6.8
2020-Jan-18 19:50 130 29 gusting 35 6.7
2020-Jan-18 19:40 130 29 gusting 35 6.7
2020-Jan-18 19:30 140 31 gusting 38 6.7
2020-Jan-18 19:20 140 29 gusting 36 6.7
2020-Jan-18 19:10 140 28 gusting 34 6.7
2020-Jan-18 19:00 130 28 gusting 34 6.7
2020-Jan-18 18:50 130 28 gusting 38 6.6
2020-Jan-18 18:40 130 29 gusting 38 6.3
2020-Jan-18 18:30 130 28 gusting 35 6.3
2020-Jan-18 18:20 130 26 gusting 31 6.2
2020-Jan-18 18:10 130 26 gusting 34 6.3
2020-Jan-18 18:00 130 26 gusting 34 6.1
2020-Jan-18 17:50 130 26 gusting 34 5.9
2020-Jan-18 17:40 130 31 gusting 40 5.9
2020-Jan-18 17:30 130 32 gusting 44 5.9
2020-Jan-18 17:20 130 33 gusting 41 5.9
2020-Jan-18 17:10 130 32 gusting 41 5.7
2020-Jan-18 17:00 130 32 gusting 41 5.6
2020-Jan-18 16:50 130 32 gusting 41 5.4
2020-Jan-18 16:40 120 29 gusting 38 5.2
2020-Jan-18 16:30 120 27 gusting 35 5.1
2020-Jan-18 16:20 120 27 gusting 38 5.2
2020-Jan-18 16:10 120 28 gusting 35 5.1
2020-Jan-18 16:00 130 31 gusting 39 5.0
2020-Jan-18 15:50 130 31 gusting 36 4.9
2020-Jan-18 15:40 130 33 gusting 42 4.7
2020-Jan-18 15:30 130 34 gusting 41 4.8
2020-Jan-18 15:20 130 35 gusting 42 4.9
2020-Jan-18 15:10 130 34 gusting 46 5.0
2020-Jan-18 15:00 120 33 gusting 40 5.0
2020-Jan-18 14:50 120 35 gusting 41 5.0
2020-Jan-18 14:40 130 34 gusting 42 5.0
2020-Jan-18 14:30 130 34 gusting 42 4.9
2020-Jan-18 14:20 130 32 gusting 41 4.7
2020-Jan-18 14:10 130 29 gusting 35 4.5
2020-Jan-18 14:00 130 31 gusting 36 4.5
2020-Jan-18 13:50 120 28 gusting 35 4.5
2020-Jan-18 13:40 120 28 gusting 34 4.5
2020-Jan-18 13:30 130 28 gusting 34 4.4
2020-Jan-18 13:20 130 28 gusting 36 4.5
2020-Jan-18 13:10 130 32 gusting 38 4.5
2020-Jan-18 13:00 130 28 gusting 35 4.6
2020-Jan-18 12:50 120 29 gusting 36 4.5
2020-Jan-18 12:40 120 29 gusting 35 4.4
2020-Jan-18 12:30 120 28 gusting 34 4.3
2020-Jan-18 12:20 120 28 gusting 33 4.3
2020-Jan-18 12:10 120 27 gusting 32 4.4
2020-Jan-18 12:00 120 28 gusting 34 4.4
2020-Jan-18 11:50 120 29 gusting 36 4.5
2020-Jan-18 11:40 120 32 gusting 36 4.6
2020-Jan-18 11:30 120 31 gusting 38 4.6
2020-Jan-18 11:20 120 29 gusting 36 4.6
2020-Jan-18 11:10 120 31 gusting 36 4.5
2020-Jan-18 11:00 120 31 gusting 36 4.4
2020-Jan-18 10:50 120 27 gusting 34 4.3
2020-Jan-18 10:40 120 28 gusting 34 4.1
2020-Jan-18 10:30 120 32 gusting 38 4.1
2020-Jan-18 10:20 130 31 gusting 34 4.2
2020-Jan-18 10:10 130 29 gusting 35 4.3
2020-Jan-18 10:00 130 26 gusting 32 4.3
2020-Jan-18 09:50 130 25 gusting 29 4.4
2020-Jan-18 09:40 130 26 gusting 31 4.5
2020-Jan-18 09:30 130 21 gusting 26 4.8
2020-Jan-18 09:20 120 24 gusting 28 5.2
2020-Jan-18 09:10 120 25 gusting 29 5.2
2020-Jan-18 09:00 120 25 gusting 31 5.1
2020-Jan-18 08:50 120 25 gusting 29 5.1
2020-Jan-18 08:40 110 25 gusting 31 5.1
2020-Jan-18 08:30 110 27 gusting 32 5.1
2020-Jan-18 08:20 110 27 gusting 32 5.2
2020-Jan-18 08:10 110 25 gusting 32 5.2
2020-Jan-18 08:00 120 25 gusting 29 5.3
2020-Jan-18 07:50 110 22 gusting 29 5.2
2020-Jan-18 07:40 110 19 gusting 24 4.9
2020-Jan-18 07:30 110 19 gusting 24 4.9
2020-Jan-18 07:20 110 18 gusting 22 4.9
2020-Jan-18 07:10 110 21 gusting 25 4.9
2020-Jan-18 07:00 120 22 gusting 28 5.0
2020-Jan-18 06:50 110 24 gusting 28 5.0
2020-Jan-18 06:40 110 24 gusting 27 5.1
2020-Jan-18 06:30 110 25 gusting 28 5.3
2020-Jan-18 06:20 110 25 gusting 27 5.4
2020-Jan-18 06:10 110 25 gusting 29 5.5
2020-Jan-18 06:00 120 27 gusting 33 5.6
2020-Jan-18 05:50 120 26 gusting 31 5.5
2020-Jan-18 05:40 120 25 gusting 31 5.4
2020-Jan-18 05:30 110 26 gusting 33 5.4
2020-Jan-18 05:20 110 24 gusting 31 5.3
2020-Jan-18 05:10 110 26 gusting 31 5.4
2020-Jan-18 05:00 110 24 gusting 29 5.3
2020-Jan-18 04:50 110 25 gusting 28 5.2
2020-Jan-18 04:40 110 24 gusting 27 5.2
2020-Jan-18 04:30 110 21 gusting 27 5.0
2020-Jan-18 04:20 120 21 gusting 27 4.8
2020-Jan-18 04:10 110 20 gusting 24 4.6
2020-Jan-18 04:00 120 20 gusting 25 4.7
2020-Jan-18 03:50 110 19 gusting 22 4.6
2020-Jan-18 03:40 110 19 gusting 22 4.4
2020-Jan-18 03:30 100 18 gusting 20 4.4
2020-Jan-18 03:20 100 18 gusting 20 4.5
2020-Jan-18 03:10 110 19 gusting 22 4.6
2020-Jan-18 03:00 120 20 gusting 24 4.7
2020-Jan-18 02:50 120 19 gusting 25 4.7
2020-Jan-18 02:40 120 18 gusting 20 4.5
2020-Jan-18 02:30 120 19 gusting 22 4.3
2020-Jan-18 02:20 120 19 gusting 22 4.4
2020-Jan-18 02:10 110 19 gusting 24 4.4
2020-Jan-18 02:00 110 19 gusting 24 4.5
2020-Jan-18 01:50 110 19 gusting 22 4.6
2020-Jan-18 01:40 110 19 gusting 24 4.6
2020-Jan-18 01:30 120 19 gusting 21 4.6
2020-Jan-18 01:20 120 19 gusting 22 4.6
2020-Jan-18 01:10 120 19 gusting 22 4.6
2020-Jan-18 01:00 110 18 gusting 21 4.6
2020-Jan-18 00:50 110 17 gusting 21 4.6
2020-Jan-18 00:40 120 18 gusting 22 4.6
2020-Jan-18 00:30 120 17 gusting 20 4.7
2020-Jan-18 00:20 120 15 gusting 19 4.8
2020-Jan-18 00:10 120 19 gusting 22 4.8
2020-Jan-18 00:00 110 19 gusting 22 4.8
2020-Jan-17 23:50 110 17 gusting 20 4.7
2020-Jan-17 23:40 100 15 gusting 19 4.7
2020-Jan-17 23:30 110 14 gusting 19 4.6
2020-Jan-17 23:20 110 13 gusting 17 4.6
2020-Jan-17 23:10 110 13 gusting 17 4.5
2020-Jan-17 23:00 110 12 gusting 13 4.4
2020-Jan-17 22:50 120 13 gusting 14 4.3
2020-Jan-17 22:40 120 13 gusting 17 4.3
2020-Jan-17 22:30 120 13 gusting 15 4.4
2020-Jan-17 22:20 120 13 gusting 14 4.4
2020-Jan-17 22:10 100 13 gusting 17 4.3
2020-Jan-17 22:00 100 13 gusting 17 4.4
2020-Jan-17 21:50 100 13 gusting 17 4.2
2020-Jan-17 21:40 090 13 gusting 15 4.0
2020-Jan-17 21:30 090 13 gusting 15 3.9
2020-Jan-17 21:20 090 13 gusting 17 3.9
2020-Jan-17 21:10 090 13 gusting 14 3.7
2020-Jan-17 21:00 090 12 gusting 13 3.7
2020-Jan-17 20:50 090 11 gusting 13 3.6
2020-Jan-17 20:40 090 9 gusting 13 3.5
2020-Jan-17 20:30 080 13 gusting 14 3.4
2020-Jan-17 20:20 090 13 gusting 15 3.3
2020-Jan-17 20:10 100 13 gusting 14 3.3
2020-Jan-17 20:00 110 13 gusting 14 3.1
2020-Jan-17 19:50 110 13 gusting 15 3.0
2020-Jan-17 19:40 100 13 gusting 15 3.0
2020-Jan-17 19:30 100 12 gusting 14 2.8
2020-Jan-17 19:20 090 11 gusting 13 2.6
2020-Jan-17 19:10 100 12 gusting 13 2.5
2020-Jan-17 19:00 090 11 gusting 13 2.5
2020-Jan-17 18:50 100 11 gusting 13 2.6
2020-Jan-17 18:40 100 11 gusting 13 2.5
2020-Jan-17 18:30 090 11 gusting 13 2.4
2020-Jan-17 18:20 100 11 gusting 13 2.3
2020-Jan-17 18:10 100 11 gusting 13 2.5
2020-Jan-17 18:00 110 11 gusting 13 2.4
2020-Jan-17 17:50 110 9 gusting 11 2.3
2020-Jan-17 17:40 100 8 gusting 11 2.2
2020-Jan-17 17:30 120 9 gusting 12 2.2
2020-Jan-17 17:20 120 9 gusting 12 2.2
2020-Jan-17 17:10 120 11 gusting 13 2.2
2020-Jan-17 17:00 120 12 gusting 13 2.3
2020-Jan-17 16:50 120 12 gusting 13 2.3
2020-Jan-17 16:40 130 12 gusting 13 2.3
2020-Jan-17 16:30 130 12 gusting 13 2.5
2020-Jan-17 16:20 130 9 gusting 12 2.5
2020-Jan-17 16:10 120 9 gusting 12 2.4
2020-Jan-17 16:00 130 9 gusting 12 2.5
2020-Jan-17 15:50 120 7 gusting 8 2.4
2020-Jan-17 15:40 110 8 gusting 9 2.3
2020-Jan-17 15:30 120 9 gusting 12 2.5
2020-Jan-17 15:20 130 11 gusting 13 2.3
2020-Jan-17 15:10 130 12 gusting 13 2.3
2020-Jan-17 15:00 120 11 gusting 13 2.3